• Join FlightAware (Why Join?)
  • Login
  • US Flag 
07:30AM EDT


 

Airport Tracker/Info


-or-


 

Live Flight TrackerFlight Track Log ✈ RAX44 ✈ 26-Apr-2013 ✈ KPTK - KSPA

Flight Track Log - Related Links

Times and Time Zones

All times are in EDT time to prevent confusion due to time zone crossing. See the RAX44 flight status page for this flight to view local times or setup timezone preferences in your user account.

Time Position Orientation Groundspeed Altitude Reporting Facility
EDT Latitude Longitude Course Direction KTS MPH feet Rate Location/Type
08:07AM 42.6619 -83.4519 289° West 163 188 1,700  Level Cleveland Center
08:08AM 42.6828 -83.5347 289° West 255 293 5,000 2,580 Climbing Cleveland Center
08:09AM 42.7244 -83.4575 54° Northeast 268 308 7,800 2,400 Climbing Cleveland Center
08:10AM 42.7283 -83.3842 86° East 291 335 9,400 2,280 Climbing Cleveland Center
08:10AM 42.7275 -83.3361 91° East 306 352 10,400 2,160 Climbing Cleveland Center
08:11AM 42.7286 -83.2797 88° East 316 364 11,600 1,860 Climbing Cleveland Center
08:12AM 42.7086 -83.1544 102° East 336 387 13,400 1,980 Climbing Cleveland Center
08:13AM 42.6158 -83.1083 160° South 279 321 15,600 2,220 Climbing Cleveland Center
08:14AM 42.5158 -83.1072 180° South 308 354 17,900 2,100 Climbing Cleveland Center
08:15AM 42.4181 -83.0947 175° South 325 374 19,800 1,920 Climbing Cleveland Center
08:16AM 42.3161 -83.0881 177° South 352 405 21,800 1,920 Climbing Cleveland Center
08:17AM 42.2122 -83.0783 176° South 369 425 23,700 2,040 Climbing Cleveland Center
08:18AM 42.1019 -83.0711 177° South 386 444 25,900 1,800 Climbing Cleveland Center
08:20AM 41.8792 -83.0486 176° South 401 461 29,100 1,620 Climbing Cleveland Center
08:21AM 41.7647 -83.0386 176° South 412 474 30,800 1,440 Climbing Cleveland Center
08:22AM 41.6539 -83.0567 187° South 412 474 32,000 960 Climbing Cleveland Center
08:23AM 41.5350 -83.0547 179° South 418 481 32,800 480 Climbing Cleveland Center
08:24AM 41.4089 -83.0139 166° South 443 510 33,000 120 Climbing Cleveland Center
08:25AM 41.2808 -82.9539 161° South 475 547 33,100 960 Climbing Cleveland Center
08:26AM 41.1586 -82.9164 167° South 480 552 35,000 960 Climbing Cleveland Center
08:27AM 41.0317 -82.8981 174° South 463 533 35,100 840 Climbing Cleveland Center
08:28AM 40.9069 -82.8800 174° South 463 533 36,700 900 Climbing Cleveland Center
08:29AM 40.7886 -82.8567 172° South 457 526 36,900 480 Climbing Cleveland Center
08:31AM 40.5539 -82.8203 173° South 462 532 38,100 720 Climbing Indianapolis Center
08:32AM 40.4303 -82.8014 173° South 446 513 39,000 420 Climbing Indianapolis Center
08:33AM 40.3058 -82.7828 173° South 446 513 39,000 -60 Level Indianapolis Center
08:34AM 40.1917 -82.7653 173° South 454 522 38,900 -60 Descending Indianapolis Center
08:35AM 40.0414 -82.7439 174° South 459 528 38,900  Level Indianapolis Center
08:36AM 39.9128 -82.7267 174° South 457 526 38,900  Level Indianapolis Center
08:37AM 39.7869 -82.7086 174° South 449 517 38,900  Level Indianapolis Center
08:38AM 39.6600 -82.6911 174° South 452 520 38,900  Level Indianapolis Center
08:39AM 39.5339 -82.6728 174° South 451 519 38,900  Level Indianapolis Center
08:40AM 39.4078 -82.6558 174° South 450 518 38,900  Level Indianapolis Center
08:41AM 39.2822 -82.6361 173° South 449 517 38,900  Level Indianapolis Center
08:42AM 39.1550 -82.6178 174° South 454 522 39,000  Climbing Indianapolis Center
08:43AM 39.0333 -82.5950 172° South 446 513 39,000  Level Indianapolis Center
08:44AM 38.9069 -82.5733 172° South 456 525 39,000  Level Indianapolis Center
08:45AM 38.7808 -82.5508 172° South 455 524 39,000  Level Indianapolis Center
08:46AM 38.6336 -82.5222 171° South 456 525 39,000  Level Indianapolis Center
08:47AM 38.5069 -82.4989 172° South 456 525 39,000  Level Indianapolis Center
08:48AM 38.3789 -82.4742 171° South 461 531 39,000  Level Indianapolis Center
08:49AM 38.2528 -82.4503 172° South 459 528 39,000  Level Indianapolis Center
08:50AM 38.1272 -82.4267 172° South 457 526 39,000  Level Indianapolis Center
08:51AM 38.0014 -82.4050 172° South 450 518 39,000  Level Indianapolis Center
08:52AM 37.8547 -82.3767 171° South 453 521 39,000 -540 Level Indianapolis Center
08:53AM 37.7253 -82.3492 170° South 467 537 38,000 -1,020 Descending Indianapolis Center
08:54AM 37.5911 -82.3239 172° South 483 556 37,000 -840 Descending Indianapolis Center
08:55AM 37.4556 -82.3000 172° South 488 562 36,300 -840 Descending Indianapolis Center
08:56AM 37.3203 -82.2717 171° South 488 562 35,300 -1,320 Descending Indianapolis Center
08:57AM 37.1864 -82.2436 171° South 483 556 33,600 -1,800 Descending Indianapolis Center
08:58AM 37.0708 -82.2231 172° South 485 558 32,100 -1,680 Descending Atlanta Center
08:59AM 36.9392 -82.2000 172° South 485 558 30,600 -1,380 Descending Atlanta Center
09:00AM 36.8136 -82.1822 174° South 471 542 29,400 -1,200 Descending Atlanta Center
09:01AM 36.6883 -82.1669 174° South 459 528 28,200 -1,260 Descending Atlanta Center
09:02AM 36.5589 -82.1547 176° South 465 535 26,900 -1,080 Descending Atlanta Center
09:03AM 36.4294 -82.1344 173° South 465 535 26,100 -900 Descending Atlanta Center
09:04AM 36.2997 -82.1144 173° South 465 535 25,100 -1,020 Descending Atlanta Center
09:05AM 36.1744 -82.0994 174° South 459 528 24,100 -960 Descending Atlanta Center
09:06AM 36.0469 -82.0844 175° South 459 528 23,200 -1,800 Descending Atlanta Center
09:07AM 35.9278 -82.0694 174° South 452 520 20,600 -2,700 Descending Atlanta Center
09:08AM 35.8233 -82.0564 174° South 433 498 17,900 -2,640 Descending Atlanta Center
09:09AM 35.7186 -82.0436 174° South 403 464 15,400 -2,400 Descending Atlanta Center
09:10AM 35.6164 -82.0308 174° South 381 438 13,200 -2,100 Descending Atlanta Center
09:11AM 35.5200 -82.0178 174° South 358 412 11,200 -1,620 Descending Atlanta Center
09:12AM 35.4322 -82.0022 172° South 342 394 10,000 -1,260 Descending Atlanta Center
09:13AM 35.3569 -81.9889 172° South 292 336 8,700 -1,440 Descending Atlanta Center
09:14AM 35.2817 -81.9753 172° South 278 320 7,200 -1,500 Descending Atlanta Center
09:15AM 35.2083 -81.9644 173° South 269 310 5,800 -1,500 Descending Atlanta Center
09:16AM 35.1394 -81.9586 176° South 256 295 4,300 -1,200 Descending Atlanta Center
09:17AM 35.0619 -81.9478 173° South 256 295 3,400 -660 Descending Atlanta Center
09:18AM 35.0119 -81.9542 186° South 245 282 3,000 2,280 Descending Atlanta Center
09:19AM 34.9347 -81.9436 174° South 245 282 8,000 2,460 Climbing Atlanta Center
09:20AM 34.8678 -81.9375 176° South 245 282 8,000  Level Atlanta Center
09:22AM 34.9000 -81.9500 338° Northwest  Level FlightAware Approximate
09:29AM 34.9157 -81.9565 338° Northwest  Level Estimated
09:30AM 34.9157 -81.9565 338° Northwest  Level Estimated